createdAt,value
2022-10-13T00:04:21.175Z,4.29
2022-10-13T00:09:30.966Z,4.29
2022-10-13T00:14:42.633Z,4.28
2022-10-13T00:19:51.741Z,4.28
2022-10-13T00:25:01.499Z,4.32
2022-10-13T00:30:11.263Z,4.32
2022-10-13T00:35:21.019Z,4.24
2022-10-13T00:40:32.059Z,4.24
2022-10-13T00:45:10.575Z,4.3
2022-10-13T00:50:18.424Z,4.3
2022-10-13T00:55:26.304Z,4.27
2022-10-13T01:03:22.385Z,4.27
2022-10-13T01:08:38.550Z,4.27
2022-10-13T01:12:34.739Z,4.27
2022-10-13T01:17:43.864Z,4.25
2022-10-13T01:22:51.702Z,4.25
2022-10-13T01:28:00.194Z,4.27
2022-10-13T01:33:09.331Z,4.27
2022-10-13T01:38:19.701Z,4.28
2022-10-13T01:43:28.856Z,4.28
2022-10-13T01:48:37.949Z,4.25
2022-10-13T01:53:48.376Z,4.25
2022-10-13T01:58:58.740Z,4.27
2022-10-13T02:04:08.501Z,4.33
2022-10-13T02:09:16.975Z,4.33
2022-10-13T02:14:26.736Z,4.27
2022-10-13T02:19:35.869Z,4.27
2022-10-13T02:24:44.340Z,4.28
2022-10-13T02:29:52.817Z,4.28
2022-10-13T02:35:02.604Z,4.31
2022-10-13T02:40:11.715Z,4.31
2022-10-13T02:45:21.464Z,4.28
2022-10-13T02:50:31.866Z,4.28
2022-10-13T02:55:41.619Z,4.29
2022-10-13T03:00:51.034Z,4.29
2022-10-13T03:05:59.891Z,4.3
2022-10-13T03:11:09.609Z,4.3
2022-10-13T03:16:20.022Z,4.32
2022-10-13T03:21:27.880Z,4.32
2022-10-13T03:26:37.624Z,4.33
2022-10-13T03:31:46.739Z,4.33
2022-10-13T03:36:54.578Z,4.29
2022-10-13T03:42:03.094Z,4.29
2022-10-13T03:47:17.340Z,4.3
2022-10-13T03:52:33.504Z,4.3
2022-10-13T03:57:49.697Z,4.25
2022-10-13T04:03:03.262Z,4.25
2022-10-13T04:08:18.143Z,4.25
2022-10-13T04:13:34.305Z,4.25
2022-10-13T04:18:49.802Z,4.27
2022-10-13T04:23:16.670Z,4.27
2022-10-13T04:28:32.838Z,4.28
2022-10-13T04:33:48.307Z,4.28
2022-10-13T04:39:05.271Z,4.25
2022-10-13T04:44:19.986Z,4.25
2022-10-13T04:49:36.772Z,4.28
2022-10-13T04:54:57.647Z,4.28
2022-10-13T05:00:06.547Z,4.27
2022-10-13T05:05:22.694Z,4.24
2022-10-13T05:10:37.613Z,4.24
2022-10-13T05:15:52.439Z,4.25
2022-10-13T05:21:08.622Z,4.25
2022-10-13T05:26:24.145Z,4.24
2022-10-13T05:31:40.941Z,4.24
2022-10-13T05:36:56.466Z,4.22
2022-10-13T05:42:12.659Z,4.22
2022-10-13T05:47:27.502Z,4.24
2022-10-13T05:52:42.426Z,4.24
2022-10-13T05:57:57.263Z,4.27
2022-10-13T06:03:12.200Z,4.27
2022-10-13T06:07:38.305Z,4.27
2022-10-13T06:12:20.709Z,4.27
2022-10-13T06:17:27.859Z,4.25
2022-10-13T06:22:37.630Z,4.25
2022-10-13T06:27:46.112Z,4.23
2022-10-13T06:32:55.204Z,4.23
2022-10-13T06:38:04.348Z,4.26
2022-10-13T06:43:12.830Z,4.26
2022-10-13T06:48:21.297Z,4.27
2022-10-13T06:53:29.813Z,4.27
2022-10-13T06:58:40.179Z,4.19
2022-10-13T07:03:49.946Z,4.19
2022-10-13T07:08:58.431Z,4.25
2022-10-13T07:14:07.553Z,4.25
2022-10-13T07:19:19.959Z,4.2
2022-10-13T07:24:37.247Z,4.2
2022-10-13T07:29:54.790Z,4.26
2022-10-13T07:35:10.964Z,4.26
2022-10-13T07:40:28.370Z,4.24
2022-10-13T07:45:45.800Z,4.24
2022-10-13T07:51:01.888Z,4.28
2022-10-13T07:56:18.058Z,4.27
2022-10-13T08:01:35.555Z,4.27
2022-10-13T08:06:03.082Z,4.25
2022-10-13T08:10:48.885Z,4.25
2022-10-13T08:22:00.628Z,4.26
2022-10-13T08:26:17.802Z,4.31
2022-10-13T08:31:28.781Z,4.31
2022-10-13T08:36:37.947Z,4.27
2022-10-13T08:41:47.733Z,4.27
2022-10-13T08:47:00.926Z,4.28
2022-10-13T08:52:07.847Z,4.28
2022-10-13T08:57:19.604Z,4.33
2022-10-13T09:02:26.133Z,4.33
2022-10-13T09:07:36.498Z,4.3
2022-10-13T09:12:46.271Z,4.3
2022-10-13T09:17:56.040Z,4.33
2022-10-13T09:23:05.781Z,4.33
2022-10-13T09:28:14.529Z,4.39
2022-10-13T09:33:23.395Z,4.39
2022-10-13T09:38:31.232Z,4.31
2022-10-13T09:43:40.344Z,4.31
2022-10-13T09:48:53.400Z,4.34
2022-10-13T09:54:09.724Z,4.34
2022-10-13T09:59:27.647Z,4.34
2022-10-13T10:04:45.092Z,4.34
2022-10-13T10:10:03.163Z,4.38
2022-10-13T10:20:36.922Z,4.41
2022-10-13T10:25:52.292Z,4.41
2022-10-13T10:31:08.443Z,4.39
2022-10-13T10:36:25.878Z,4.39
2022-10-13T10:41:43.402Z,4.38
2022-10-13T10:46:59.481Z,4.38
2022-10-13T10:57:35.638Z,4.41
2022-10-13T11:02:52.555Z,4.37
2022-10-13T11:08:10.524Z,4.41
2022-10-13T11:13:27.980Z,4.41
2022-10-13T11:18:46.685Z,4.36
2022-10-13T11:20:52.022Z,4.36
2022-10-13T11:26:01.290Z,4.36
2022-10-13T11:31:09.647Z,4.43
2022-10-13T11:36:18.753Z,4.39
2022-10-13T11:41:28.497Z,4.39
2022-10-13T11:46:40.832Z,4.36
2022-10-13T11:51:50.595Z,4.36
2022-10-13T11:57:04.152Z,4.37
2022-10-13T12:02:12.667Z,4.37
2022-10-13T12:07:21.780Z,4.38
2022-10-13T12:12:31.545Z,4.38
2022-10-13T12:17:40.691Z,4.37
2022-10-13T12:22:51.078Z,4.37
2022-10-13T12:28:03.380Z,4.35
2022-10-13T12:33:13.141Z,4.35
2022-10-13T12:38:22.282Z,4.37
2022-10-13T12:43:32.047Z,4.37
2022-10-13T12:48:41.779Z,4.36
2022-10-13T12:53:51.574Z,4.36
2022-10-13T12:59:08.765Z,4.33
2022-10-13T13:04:24.785Z,4.33
2022-10-13T13:09:42.220Z,4.35
2022-10-13T13:14:59.649Z,4.35
2022-10-13T13:24:46.262Z,4.36
2022-10-13T14:12:57.931Z,4.46
2022-10-13T14:18:10.253Z,4.46
2022-10-13T14:23:25.750Z,4.42
2022-10-13T14:28:40.725Z,4.44
2022-10-13T14:33:56.138Z,4.44
2022-10-13T14:39:12.310Z,4.46
2022-10-13T14:44:28.470Z,4.46
2022-10-13T14:49:44.648Z,4.43
2022-10-13T14:55:00.148Z,4.43
2022-10-13T15:00:15.057Z,4.49
2022-10-13T15:04:40.541Z,4.49
2022-10-13T15:09:05.461Z,4.56
2022-10-13T15:14:21.008Z,4.56
2022-10-13T15:19:35.823Z,4.49
2022-10-13T15:24:02.621Z,4.49
2022-10-13T15:29:17.563Z,4.53
2022-10-13T15:33:56.689Z,4.53
2022-10-13T15:39:06.424Z,4.57
2022-10-13T15:44:15.549Z,4.57
2022-10-13T15:49:25.303Z,4.52
2022-10-13T15:54:35.088Z,4.52
2022-10-13T15:59:44.823Z,4.58
2022-10-13T16:04:52.663Z,4.58
2022-10-13T16:10:02.684Z,4.53
2022-10-13T16:15:10.925Z,4.53
2022-10-13T16:20:20.023Z,4.58
2022-10-13T16:25:28.502Z,4.58
2022-10-13T16:30:36.975Z,4.54
2022-10-13T16:35:44.834Z,4.54
2022-10-13T16:40:53.302Z,4.63
2022-10-13T16:46:03.095Z,4.63
2022-10-13T16:51:12.188Z,4.59
2022-10-13T16:56:21.302Z,4.59
2022-10-13T17:01:30.421Z,4.67
2022-10-13T17:06:39.548Z,4.67
2022-10-13T17:17:00.463Z,4.63
2022-10-13T17:22:15.983Z,4.66
2022-10-13T17:27:30.857Z,4.66
2022-10-13T17:32:47.020Z,4.71
2022-10-13T17:38:01.933Z,4.71
2022-10-13T17:43:17.417Z,4.59
2022-10-13T17:48:32.944Z,4.62
2022-10-13T17:53:49.135Z,4.62
2022-10-13T17:59:03.978Z,4.55
2022-10-13T18:04:20.214Z,4.55
2022-10-13T18:09:38.551Z,4.52
2022-10-13T18:14:51.384Z,4.52
2022-10-13T18:20:06.089Z,4.65
2022-10-13T18:25:20.936Z,4.65
2022-10-13T18:30:35.853Z,4.63
2022-10-13T18:35:52.652Z,4.63
2022-10-13T18:39:28.145Z,4.48
2022-10-13T18:44:42.416Z,4.48
2022-10-13T18:49:57.265Z,4.45
2022-10-13T18:55:12.816Z,4.45
2022-10-13T19:00:28.314Z,4.36
2022-10-13T19:05:44.462Z,4.36
2022-10-13T19:10:59.375Z,4.43
2022-10-13T19:16:15.509Z,4.43
2022-10-13T19:21:31.030Z,4.45
2022-10-13T19:26:45.902Z,4.45
2022-10-13T19:32:00.789Z,4.47
2022-10-13T19:36:26.982Z,4.47
2022-10-13T19:41:11.861Z,4.5
2022-10-13T19:46:21.653Z,4.5
2022-10-13T19:51:30.756Z,4.48
2022-10-13T19:56:39.225Z,4.48
2022-10-13T20:01:50.289Z,4.48
2022-10-13T20:06:59.381Z,4.48
2022-10-13T20:12:09.164Z,4.51
2022-10-13T20:17:20.598Z,4.51
2022-10-13T20:22:28.024Z,4.44
2022-10-13T20:27:37.153Z,4.44
2022-10-13T20:32:44.981Z,4.58
2022-10-13T20:37:54.801Z,4.58
2022-10-13T20:43:03.230Z,4.51
2022-10-13T20:48:13.668Z,4.51
2022-10-13T20:53:21.467Z,4.65
2022-10-13T20:58:29.949Z,4.7
2022-10-13T21:03:40.374Z,4.7
2022-10-13T21:08:49.543Z,4.73
2022-10-13T21:13:57.942Z,4.73
2022-10-13T21:19:06.433Z,4.71
2022-10-13T21:24:20.137Z,4.71
2022-10-13T21:29:36.822Z,4.63
2022-10-13T21:34:55.738Z,4.63
2022-10-13T21:40:11.635Z,4.55
2022-10-13T21:45:27.338Z,4.55
2022-10-13T21:50:44.769Z,4.5
2022-10-13T21:56:02.362Z,4.5
2022-10-13T22:01:18.276Z,4.58
2022-10-13T22:06:34.593Z,4.58
2022-10-13T22:11:52.867Z,4.51
2022-10-13T22:15:46.099Z,4.51
2022-10-13T22:20:55.868Z,4.43
2022-10-13T22:26:04.982Z,4.43
2022-10-13T22:31:13.529Z,4.43
2022-10-13T22:36:23.231Z,4.43
2022-10-13T22:41:31.712Z,4.37
2022-10-13T22:46:41.453Z,4.37
2022-10-13T22:51:51.810Z,4.43
2022-10-13T22:57:08.019Z,4.43
2022-10-13T23:02:22.217Z,4.39
2022-10-13T23:07:37.776Z,4.39
2022-10-13T23:12:52.620Z,4.43
2022-10-13T23:18:08.144Z,4.43
2022-10-13T23:23:23.661Z,4.45
2022-10-13T23:28:38.930Z,4.45
2022-10-13T23:33:54.736Z,4.45
2022-10-13T23:39:10.232Z,4.45
2022-10-13T23:44:24.512Z,4.46
2022-10-13T23:49:40.627Z,4.46
2022-10-13T23:54:06.146Z,4.47
2022-10-13T23:58:48.513Z,4.47
